createdAt,value
2019-05-19T00:00:13.278Z,78.61
2019-05-19T00:02:41.037Z,77.78
2019-05-19T00:05:08.198Z,78.22
2019-05-19T00:07:36.145Z,77.80
2019-05-19T00:10:03.678Z,78.01
2019-05-19T00:12:31.173Z,77.34
2019-05-19T00:14:58.620Z,77.19
2019-05-19T00:17:26.098Z,77.53
2019-05-19T00:19:53.597Z,77.06
2019-05-19T00:22:21.050Z,75.18
2019-05-19T00:24:48.503Z,74.77
2019-05-19T00:27:15.974Z,73.75
2019-05-19T00:29:43.404Z,75.14
2019-05-19T00:32:10.846Z,76.01
2019-05-19T00:34:38.337Z,75.55
2019-05-19T00:37:05.762Z,74.97
2019-05-19T00:39:33.241Z,74.22
2019-05-19T00:42:03.005Z,74.56
2019-05-19T00:44:30.547Z,73.60
2019-05-19T00:46:58.006Z,73.34
2019-05-19T00:49:25.441Z,74.18
2019-05-19T00:51:52.882Z,75.59
2019-05-19T00:54:21.271Z,74.15
2019-05-19T00:56:48.786Z,73.65
2019-05-19T00:59:16.227Z,73.11
2019-05-19T01:01:43.696Z,72.98
2019-05-19T01:04:11.174Z,72.64
2019-05-19T01:06:38.675Z,72.28
2019-05-19T01:09:06.121Z,72.16
2019-05-19T01:11:33.570Z,72.30
2019-05-19T01:14:01.065Z,72.17
2019-05-19T01:16:28.512Z,72.20
2019-05-19T01:18:55.951Z,72.58
2019-05-19T01:21:23.406Z,74.26
2019-05-19T01:23:50.865Z,73.33
2019-05-19T01:26:18.311Z,74.09
2019-05-19T01:28:45.747Z,76.14
2019-05-19T01:31:13.773Z,76.41
2019-05-19T01:33:41.184Z,75.67
2019-05-19T01:36:08.650Z,75.39
2019-05-19T01:38:36.080Z,75.82
2019-05-19T01:41:03.537Z,76.12
2019-05-19T01:43:30.988Z,75.71
2019-05-19T01:45:58.435Z,77.03
2019-05-19T01:48:28.025Z,76.69
2019-05-19T01:50:53.975Z,78.20
2019-05-19T01:53:21.411Z,77.94
2019-05-19T01:55:48.879Z,78.26
2019-05-19T01:58:16.346Z,78.72
2019-05-19T02:00:43.802Z,78.97
2019-05-19T02:03:11.262Z,79.20
2019-05-19T02:05:38.734Z,78.91
2019-05-19T02:08:06.187Z,79.04
2019-05-19T02:10:33.630Z,77.92
2019-05-19T02:13:01.063Z,78.60
2019-05-19T02:15:28.514Z,77.71
2019-05-19T02:17:57.660Z,77.04
2019-05-19T02:20:33.254Z,78.80
2019-05-19T02:22:52.645Z,78.72
2019-05-19T02:25:20.121Z,77.70
2019-05-19T02:27:47.593Z,76.76
2019-05-19T02:30:15.846Z,76.42
2019-05-19T02:32:43.327Z,77.84
2019-05-19T02:35:10.770Z,78.90
2019-05-19T02:37:38.256Z,78.57
2019-05-19T02:40:05.736Z,78.75
2019-05-19T02:42:33.207Z,77.97
2019-05-19T02:45:00.665Z,78.53
2019-05-19T02:47:28.120Z,77.59
2019-05-19T02:49:55.547Z,77.00
2019-05-19T02:52:25.166Z,77.54
2019-05-19T02:54:52.686Z,78.67
2019-05-19T02:57:20.152Z,77.62
2019-05-19T02:59:47.689Z,78.94
2019-05-19T03:02:15.057Z,78.61
2019-05-19T03:04:42.553Z,77.30
2019-05-19T03:07:09.977Z,76.83
2019-05-19T03:09:37.438Z,76.93
2019-05-19T03:12:04.883Z,78.20
2019-05-19T03:14:32.361Z,79.01
2019-05-19T03:16:59.899Z,79.27
2019-05-19T03:19:27.461Z,79.50
2019-05-19T03:21:55.719Z,79.16
2019-05-19T03:24:23.143Z,80.28
2019-05-19T03:26:50.594Z,79.77
2019-05-19T03:29:18.344Z,79.59
2019-05-19T03:31:45.803Z,78.59
2019-05-19T03:34:13.238Z,77.85
2019-05-19T03:36:40.701Z,77.61
2019-05-19T03:39:08.136Z,77.29
2019-05-19T03:41:35.626Z,77.03
2019-05-19T03:44:03.075Z,77.02
2019-05-19T03:46:30.539Z,78.31
2019-05-19T03:48:57.985Z,77.74
2019-05-19T03:51:31.075Z,80.55
2019-05-19T03:53:53.846Z,80.31
2019-05-19T03:56:21.309Z,79.43
2019-05-19T03:58:48.754Z,78.65
2019-05-19T04:01:16.225Z,78.11
2019-05-19T04:03:43.662Z,77.80
2019-05-19T04:06:11.118Z,77.62
2019-05-19T04:08:38.574Z,78.14
2019-05-19T04:11:06.022Z,77.41
2019-05-19T04:13:33.499Z,77.33
2019-05-19T04:16:00.928Z,76.85
2019-05-19T04:18:28.398Z,76.72
2019-05-19T04:20:56.876Z,76.51
2019-05-19T04:23:24.346Z,76.67
2019-05-19T04:25:51.809Z,76.47
2019-05-19T04:28:19.268Z,76.03
2019-05-19T04:30:46.741Z,75.85
2019-05-19T04:33:14.196Z,77.34
2019-05-19T04:35:41.651Z,79.08
2019-05-19T04:38:09.098Z,79.07
2019-05-19T04:40:36.596Z,79.80
2019-05-19T04:43:04.028Z,79.85
2019-05-19T04:45:31.506Z,79.35
2019-05-19T04:47:58.954Z,78.31
2019-05-19T04:50:27.492Z,77.84
2019-05-19T04:52:54.922Z,77.23
2019-05-19T04:55:22.371Z,76.90
2019-05-19T04:57:49.833Z,76.56
2019-05-19T05:00:17.273Z,76.78
2019-05-19T05:02:44.755Z,76.95
2019-05-19T05:05:12.207Z,76.58
2019-05-19T05:07:39.666Z,76.54
2019-05-19T05:10:07.953Z,76.39
2019-05-19T05:12:35.400Z,76.26
2019-05-19T05:15:02.860Z,76.60
2019-05-19T05:17:30.296Z,76.73
2019-05-19T05:19:57.946Z,76.49
2019-05-19T05:22:25.405Z,76.57
2019-05-19T05:24:52.845Z,76.65
2019-05-19T05:27:20.295Z,76.78
2019-05-19T05:29:47.728Z,76.78
2019-05-19T05:32:15.160Z,76.83
2019-05-19T05:34:42.631Z,76.74
2019-05-19T05:37:10.067Z,76.87
2019-05-19T05:39:38.059Z,76.99
2019-05-19T05:42:05.571Z,77.16
2019-05-19T05:44:33.036Z,76.84
2019-05-19T05:47:00.496Z,76.52
2019-05-19T05:49:28.479Z,76.34
2019-05-19T05:51:55.916Z,76.14
2019-05-19T05:54:23.392Z,75.93
2019-05-19T05:56:50.881Z,75.85
2019-05-19T05:59:18.320Z,75.75
2019-05-19T06:01:45.805Z,75.84
2019-05-19T06:04:13.253Z,75.98
2019-05-19T06:06:40.715Z,76.13
2019-05-19T06:09:08.191Z,76.11
2019-05-19T06:11:35.629Z,75.97
2019-05-19T06:14:03.087Z,75.75
2019-05-19T06:16:30.515Z,75.67
2019-05-19T06:18:57.953Z,75.51
2019-05-19T06:21:25.408Z,75.75
2019-05-19T06:23:52.930Z,75.89
2019-05-19T06:26:20.382Z,75.61
2019-05-19T06:28:47.827Z,75.57
2019-05-19T06:31:15.308Z,75.55
2019-05-19T06:33:42.916Z,75.53
2019-05-19T06:36:10.366Z,75.48
2019-05-19T06:38:37.818Z,75.50
2019-05-19T06:41:05.269Z,75.45
2019-05-19T06:43:32.714Z,75.32
2019-05-19T06:46:00.168Z,75.60
2019-05-19T06:48:27.640Z,75.93
2019-05-19T06:50:55.066Z,75.82
2019-05-19T06:53:22.565Z,75.71
2019-05-19T06:55:50.022Z,75.30
2019-05-19T06:58:17.477Z,75.75
2019-05-19T07:00:44.937Z,75.74
2019-05-19T07:03:12.411Z,76.32
2019-05-19T07:05:39.872Z,75.37
2019-05-19T07:08:07.333Z,74.54
2019-05-19T07:10:34.809Z,74.48
2019-05-19T07:13:02.288Z,74.16
2019-05-19T07:15:30.068Z,74.12
2019-05-19T07:17:57.524Z,74.42
2019-05-19T07:20:25.016Z,74.30
2019-05-19T07:22:52.492Z,74.05
2019-05-19T07:25:19.935Z,74.19
2019-05-19T07:27:47.431Z,73.91
2019-05-19T07:30:14.903Z,73.65
2019-05-19T07:32:42.414Z,73.38
2019-05-19T07:35:09.909Z,73.66
2019-05-19T07:37:37.358Z,74.01
2019-05-19T07:40:04.821Z,73.41
2019-05-19T07:42:32.274Z,73.25
2019-05-19T07:45:00.686Z,72.99
2019-05-19T07:47:28.156Z,73.35
2019-05-19T07:49:55.571Z,73.12
2019-05-19T07:52:23.005Z,72.65
2019-05-19T07:54:50.465Z,72.65
2019-05-19T07:57:17.903Z,72.79
2019-05-19T07:59:45.366Z,72.07
2019-05-19T08:02:12.816Z,72.12
2019-05-19T08:04:40.268Z,71.51
2019-05-19T08:07:07.732Z,70.65
2019-05-19T08:09:35.171Z,70.26
2019-05-19T08:12:02.660Z,70.31
2019-05-19T08:14:30.111Z,70.42
2019-05-19T08:16:57.557Z,69.90
2019-05-19T08:19:25.463Z,69.49
2019-05-19T08:21:52.964Z,69.56
2019-05-19T08:24:20.396Z,68.87
2019-05-19T08:26:48.521Z,68.60
2019-05-19T08:29:16.066Z,69.12
2019-05-19T08:31:43.539Z,68.76
2019-05-19T08:34:10.969Z,68.77
2019-05-19T08:36:38.448Z,67.98
2019-05-19T08:39:06.880Z,68.22
2019-05-19T08:41:34.325Z,67.66
2019-05-19T08:44:02.022Z,67.48
2019-05-19T08:46:29.477Z,67.97
2019-05-19T08:48:58.550Z,67.83
2019-05-19T08:51:24.395Z,65.81
2019-05-19T08:53:51.848Z,67.16
2019-05-19T08:56:19.328Z,66.83
2019-05-19T08:58:46.780Z,66.72
2019-05-19T09:01:14.221Z,66.88
2019-05-19T09:03:41.652Z,66.41
2019-05-19T09:06:09.146Z,65.26
2019-05-19T09:08:36.597Z,65.91
2019-05-19T09:11:04.067Z,64.68
2019-05-19T09:13:31.503Z,64.80
2019-05-19T09:15:58.969Z,62.31
2019-05-19T09:18:26.385Z,64.22
2019-05-19T09:20:53.835Z,63.03
2019-05-19T09:23:21.271Z,59.92
2019-05-19T09:25:48.719Z,61.78
2019-05-19T09:28:16.167Z,62.08
2019-05-19T09:30:43.592Z,60.16
2019-05-19T09:33:11.053Z,59.62
2019-05-19T09:35:38.477Z,57.50
2019-05-19T09:38:05.921Z,57.31
2019-05-19T09:40:33.358Z,58.58
2019-05-19T09:43:00.823Z,59.46
2019-05-19T09:45:28.302Z,58.78
2019-05-19T09:47:55.743Z,58.35
2019-05-19T09:50:23.183Z,56.55
2019-05-19T09:52:50.623Z,56.13
2019-05-19T09:55:18.053Z,57.49
2019-05-19T09:57:45.492Z,57.48
2019-05-19T10:00:12.914Z,55.77
2019-05-19T10:02:40.378Z,57.28
2019-05-19T10:05:07.837Z,54.67
2019-05-19T10:07:35.278Z,55.66
2019-05-19T10:10:04.542Z,52.58
2019-05-19T10:12:32.092Z,54.52
2019-05-19T10:14:59.530Z,54.69
2019-05-19T10:17:26.951Z,52.66
2019-05-19T10:19:54.401Z,50.68
2019-05-19T10:22:21.843Z,54.64
2019-05-19T10:25:10.459Z,55.00
2019-05-19T10:27:21.389Z,53.95
2019-05-19T10:29:45.327Z,54.27
2019-05-19T10:32:12.762Z,53.40
2019-05-19T10:34:40.251Z,48.91
2019-05-19T10:37:07.693Z,51.32
2019-05-19T10:39:35.127Z,53.37
2019-05-19T10:42:02.942Z,51.97
2019-05-19T10:44:30.063Z,52.34
2019-05-19T10:46:57.528Z,51.98
2019-05-19T10:49:24.972Z,52.07
2019-05-19T10:51:52.419Z,53.33
2019-05-19T10:54:19.901Z,52.11
2019-05-19T10:56:47.345Z,51.95
2019-05-19T10:59:14.812Z,47.91
2019-05-19T11:01:42.280Z,48.25
2019-05-19T11:04:09.747Z,53.31
2019-05-19T11:06:37.174Z,52.13
2019-05-19T11:09:04.647Z,51.96
2019-05-19T11:11:32.080Z,50.10
2019-05-19T11:13:59.521Z,52.95
2019-05-19T11:16:26.945Z,50.35
2019-05-19T11:18:54.436Z,53.43
2019-05-19T11:21:21.882Z,54.56
2019-05-19T11:23:49.324Z,50.70
2019-05-19T11:26:16.896Z,52.89
2019-05-19T11:28:44.315Z,51.85
2019-05-19T11:31:11.755Z,52.52
2019-05-19T11:33:39.192Z,55.02
2019-05-19T11:36:07.293Z,54.95
2019-05-19T11:38:34.754Z,55.23
2019-05-19T11:41:02.183Z,54.58
2019-05-19T11:43:29.641Z,53.83
2019-05-19T11:45:57.060Z,51.76
2019-05-19T11:48:25.174Z,53.15
2019-05-19T11:50:52.617Z,52.64
2019-05-19T11:53:20.074Z,53.09
2019-05-19T11:55:47.516Z,52.71
2019-05-19T11:58:14.967Z,53.04
2019-05-19T12:00:42.399Z,51.24
2019-05-19T12:03:09.846Z,52.37
2019-05-19T12:05:37.411Z,52.21
2019-05-19T12:08:04.822Z,52.56
2019-05-19T12:10:33.203Z,53.62
2019-05-19T12:13:00.729Z,51.40
2019-05-19T12:15:28.177Z,50.63
2019-05-19T12:17:55.624Z,53.68
2019-05-19T12:20:23.064Z,52.62
2019-05-19T12:22:50.615Z,53.69
2019-05-19T12:25:18.055Z,52.90
2019-05-19T12:27:45.504Z,53.68
2019-05-19T12:30:15.673Z,54.17
2019-05-19T12:32:43.182Z,53.48
2019-05-19T12:35:10.617Z,55.00
2019-05-19T12:37:38.156Z,54.23
2019-05-19T12:40:05.582Z,53.92
2019-05-19T12:42:33.052Z,54.48
2019-05-19T12:45:00.499Z,54.67
2019-05-19T12:47:27.962Z,53.59
2019-05-19T12:49:55.387Z,53.19
2019-05-19T12:52:22.840Z,52.53
2019-05-19T12:54:50.316Z,51.86
2019-05-19T12:57:21.071Z,52.56
2019-05-19T12:59:45.245Z,53.16
2019-05-19T13:02:12.713Z,53.79
2019-05-19T13:04:40.159Z,53.84
2019-05-19T13:07:07.872Z,53.63
2019-05-19T13:09:35.316Z,54.58
2019-05-19T13:12:02.730Z,56.09
2019-05-19T13:14:30.191Z,58.09
2019-05-19T13:16:57.622Z,58.87
2019-05-19T13:19:25.197Z,60.58
2019-05-19T13:21:52.644Z,60.67
2019-05-19T13:24:20.092Z,60.15
2019-05-19T13:26:56.022Z,60.57
2019-05-19T13:29:15.045Z,61.59
2019-05-19T13:31:42.461Z,62.11
2019-05-19T13:34:09.920Z,62.32
2019-05-19T13:36:40.165Z,63.04
2019-05-19T13:39:04.831Z,64.19
2019-05-19T13:41:32.273Z,65.52
2019-05-19T13:43:59.869Z,65.40
2019-05-19T13:46:27.241Z,66.01
2019-05-19T13:48:54.693Z,66.65
2019-05-19T13:51:22.149Z,67.52
2019-05-19T13:53:49.614Z,68.71
2019-05-19T13:56:17.065Z,69.44
2019-05-19T13:58:44.527Z,68.78
2019-05-19T14:01:27.307Z,69.23
2019-05-19T14:03:39.484Z,69.11
2019-05-19T14:06:06.937Z,69.20
2019-05-19T14:08:34.371Z,69.39
2019-05-19T14:11:01.831Z,69.73
2019-05-19T14:13:29.290Z,70.20
2019-05-19T14:15:56.727Z,70.44
2019-05-19T14:18:24.198Z,70.75
2019-05-19T14:20:51.659Z,71.63
2019-05-19T14:23:19.104Z,71.77
2019-05-19T14:25:46.568Z,72.37
2019-05-19T14:28:14.970Z,73.02
2019-05-19T14:30:42.588Z,72.79
2019-05-19T14:33:10.032Z,73.59
2019-05-19T14:35:37.501Z,73.51
2019-05-19T14:38:04.936Z,74.19
2019-05-19T14:40:33.220Z,74.49
2019-05-19T14:43:00.775Z,74.58
2019-05-19T14:45:28.243Z,74.89
2019-05-19T14:47:55.717Z,74.60
2019-05-19T14:50:23.167Z,74.49
2019-05-19T14:52:50.580Z,73.96
2019-05-19T14:55:18.102Z,74.67
2019-05-19T14:57:45.816Z,75.09
2019-05-19T15:00:13.008Z,74.54
2019-05-19T15:02:40.475Z,75.51
2019-05-19T15:05:07.934Z,75.69
2019-05-19T15:07:35.387Z,75.26
2019-05-19T15:10:02.834Z,75.57
2019-05-19T15:12:30.270Z,75.04
2019-05-19T15:14:57.684Z,75.42
2019-05-19T15:17:25.151Z,76.08
2019-05-19T15:19:52.595Z,76.13
2019-05-19T15:22:20.047Z,76.46
2019-05-19T15:24:47.503Z,76.26
2019-05-19T15:27:14.997Z,77.23
2019-05-19T15:29:42.421Z,77.15
2019-05-19T15:32:10.909Z,76.94
2019-05-19T15:34:38.330Z,76.84
2019-05-19T15:37:05.779Z,77.35
2019-05-19T15:39:33.225Z,78.04
2019-05-19T15:42:00.685Z,79.23
2019-05-19T15:44:28.146Z,79.55
2019-05-19T15:46:55.598Z,81.27
2019-05-19T15:49:23.039Z,81.86
2019-05-19T15:52:02.383Z,83.98
2019-05-19T15:54:17.960Z,86.23
2019-05-19T15:56:45.464Z,86.08
2019-05-19T15:59:12.898Z,87.56
2019-05-19T16:01:40.366Z,87.05
2019-05-19T16:04:09.677Z,85.01
2019-05-19T16:06:39.116Z,84.40
2019-05-19T16:09:04.745Z,83.34
2019-05-19T16:11:32.201Z,84.27
2019-05-19T16:13:59.661Z,81.88
2019-05-19T16:16:27.104Z,84.22
2019-05-19T16:18:54.537Z,84.53
2019-05-19T16:21:21.994Z,84.08
2019-05-19T16:23:49.432Z,84.67
2019-05-19T16:26:16.868Z,81.15
2019-05-19T16:28:44.279Z,81.91
2019-05-19T16:31:12.077Z,82.41
2019-05-19T16:33:39.503Z,82.13
2019-05-19T16:36:08.050Z,80.51
2019-05-19T16:38:34.430Z,80.91
2019-05-19T16:41:01.868Z,79.58
2019-05-19T16:43:32.701Z,79.03
2019-05-19T16:46:00.264Z,78.06
2019-05-19T16:48:27.722Z,77.37
2019-05-19T16:50:55.145Z,79.17
2019-05-19T16:53:22.620Z,80.37
2019-05-19T16:55:50.082Z,78.65
2019-05-19T16:58:21.326Z,78.20
2019-05-19T17:00:45.003Z,78.41
2019-05-19T17:03:12.513Z,76.34
2019-05-19T17:05:39.935Z,75.93
2019-05-19T17:08:07.389Z,76.17
2019-05-19T17:10:34.815Z,74.67
2019-05-19T17:13:02.257Z,73.42
2019-05-19T17:15:29.694Z,74.15
2019-05-19T17:17:57.155Z,74.43
2019-05-19T17:20:24.565Z,75.39
2019-05-19T17:22:52.024Z,75.43
2019-05-19T17:25:19.477Z,75.48
2019-05-19T17:27:46.902Z,75.71
2019-05-19T17:30:14.335Z,75.88
2019-05-19T17:32:41.773Z,76.53
2019-05-19T17:35:09.213Z,77.04
2019-05-19T17:37:37.433Z,78.50
2019-05-19T17:40:04.912Z,80.41
2019-05-19T17:42:32.384Z,81.25
2019-05-19T17:44:59.814Z,81.80
2019-05-19T17:47:27.277Z,81.52
2019-05-19T17:49:54.683Z,80.98
2019-05-19T17:52:22.111Z,83.59
2019-05-19T17:54:49.534Z,84.40
2019-05-19T17:57:16.996Z,83.96
2019-05-19T17:59:44.466Z,81.26
2019-05-19T18:02:11.891Z,80.64
2019-05-19T18:07:16.792Z,78.81
2019-05-19T18:09:44.211Z,79.39
2019-05-19T18:12:11.689Z,81.13
2019-05-19T18:14:39.104Z,84.27
2019-05-19T18:17:06.533Z,85.27
2019-05-19T18:19:33.962Z,84.93
2019-05-19T18:22:01.413Z,85.15
2019-05-19T18:24:28.917Z,84.61
2019-05-19T18:26:56.379Z,85.65
2019-05-19T18:29:31.052Z,85.67
2019-05-19T18:31:51.285Z,84.56
2019-05-19T18:34:18.703Z,84.81
2019-05-19T18:36:46.140Z,84.87
2019-05-19T18:39:14.356Z,85.03
2019-05-19T18:41:41.813Z,84.67
2019-05-19T18:44:09.267Z,84.39
2019-05-19T18:46:36.707Z,84.73
2019-05-19T18:49:04.136Z,84.32
2019-05-19T18:51:31.584Z,84.58
2019-05-19T18:53:59.020Z,85.37
2019-05-19T18:56:26.450Z,80.63
2019-05-19T18:58:53.902Z,78.85
2019-05-19T19:01:21.359Z,77.29
2019-05-19T19:03:48.781Z,75.61
2019-05-19T19:06:16.229Z,76.56
2019-05-19T19:08:43.656Z,75.14
2019-05-19T19:11:11.089Z,72.58
2019-05-19T19:13:38.542Z,73.34
2019-05-19T19:16:05.990Z,71.87
2019-05-19T19:18:33.395Z,72.12
2019-05-19T19:21:00.881Z,72.99
2019-05-19T19:23:28.327Z,71.61
2019-05-19T19:25:56.568Z,71.79
2019-05-19T19:28:24.076Z,72.01
2019-05-19T19:30:51.539Z,71.29
2019-05-19T19:33:18.976Z,72.27
2019-05-19T19:35:46.451Z,72.40
2019-05-19T19:38:13.891Z,72.10
2019-05-19T19:40:41.331Z,71.92
2019-05-19T19:43:08.783Z,73.07
2019-05-19T19:45:36.246Z,72.73
2019-05-19T19:48:03.678Z,72.56
2019-05-19T19:50:31.242Z,72.92
2019-05-19T19:52:58.693Z,72.91
2019-05-19T19:55:26.123Z,73.31
2019-05-19T19:57:53.556Z,73.30
2019-05-19T20:00:35.883Z,73.31
2019-05-19T20:03:03.388Z,73.57
2019-05-19T20:05:30.928Z,73.87
2019-05-19T20:07:58.411Z,73.47
2019-05-19T20:10:25.864Z,73.51
2019-05-19T20:12:53.313Z,73.60
2019-05-19T20:15:20.794Z,73.22
2019-05-19T20:17:48.204Z,72.89
2019-05-19T20:20:16.671Z,72.10
2019-05-19T20:22:44.094Z,72.17
2019-05-19T20:25:11.530Z,73.19
2019-05-19T20:27:38.974Z,73.10
2019-05-19T20:30:06.436Z,74.00
2019-05-19T20:32:33.876Z,73.90
2019-05-19T20:35:01.341Z,74.23
2019-05-19T20:37:28.845Z,73.83
2019-05-19T20:39:56.260Z,73.46
2019-05-19T20:42:24.385Z,74.05
2019-05-19T20:44:51.828Z,75.89
2019-05-19T20:47:19.249Z,74.92
2019-05-19T20:49:47.236Z,74.00
2019-05-19T20:52:14.710Z,72.86
2019-05-19T20:54:42.141Z,74.46
2019-05-19T20:57:09.580Z,73.53
2019-05-19T20:59:37.018Z,74.41
2019-05-19T21:02:04.442Z,75.11
2019-05-19T21:04:32.851Z,74.80
2019-05-19T21:07:01.467Z,76.08
2019-05-19T21:09:30.020Z,74.99
2019-05-19T21:11:58.673Z,74.20
2019-05-19T21:14:27.060Z,75.00
2019-05-19T21:16:55.674Z,74.53
2019-05-19T21:19:24.080Z,75.01
2019-05-19T21:21:52.560Z,75.68
2019-05-19T21:24:20.998Z,76.52
2019-05-19T21:26:49.634Z,75.13
2019-05-19T21:29:18.857Z,74.73
2019-05-19T21:34:21.051Z,77.37
2019-05-19T21:36:49.503Z,79.18
2019-05-19T21:39:17.036Z,78.48
2019-05-19T21:41:44.503Z,78.04
2019-05-19T21:44:11.930Z,77.75
2019-05-19T21:46:39.402Z,77.42
2019-05-19T21:49:06.842Z,76.31
2019-05-19T21:51:34.293Z,76.10
2019-05-19T21:54:01.739Z,75.62
2019-05-19T21:56:29.158Z,76.40
2019-05-19T21:58:56.567Z,76.38
2019-05-19T22:01:24.047Z,76.53
2019-05-19T22:03:51.464Z,77.00
2019-05-19T22:06:18.915Z,76.71
2019-05-19T22:08:46.368Z,76.94
2019-05-19T22:11:13.844Z,77.04
2019-05-19T22:13:41.985Z,76.85
2019-05-19T22:16:13.379Z,77.39
2019-05-19T22:18:36.934Z,77.38
2019-05-19T22:21:04.380Z,76.96
2019-05-19T22:23:31.811Z,77.80
2019-05-19T22:26:00.243Z,77.96
2019-05-19T22:28:27.743Z,77.83
2019-05-19T22:30:55.166Z,78.11
2019-05-19T22:33:22.604Z,77.81
2019-05-19T22:35:50.066Z,78.44
2019-05-19T22:38:17.537Z,78.06
2019-05-19T22:40:44.951Z,78.62
2019-05-19T22:43:12.380Z,77.86
2019-05-19T22:45:40.533Z,78.17
2019-05-19T22:48:07.957Z,78.51
2019-05-19T22:50:35.447Z,78.99
2019-05-19T22:53:03.781Z,79.59
2019-05-19T22:55:31.186Z,80.09
2019-05-19T22:57:58.621Z,79.42
2019-05-19T23:00:27.078Z,78.93
2019-05-19T23:02:54.594Z,80.49
2019-05-19T23:05:22.053Z,81.51
2019-05-19T23:07:49.510Z,83.35
2019-05-19T23:10:16.977Z,83.93
2019-05-19T23:12:44.433Z,83.59
2019-05-19T23:15:12.015Z,83.85
2019-05-19T23:17:39.486Z,83.46
2019-05-19T23:20:06.899Z,81.99
2019-05-19T23:22:34.337Z,82.17
2019-05-19T23:25:01.778Z,82.34
2019-05-19T23:27:29.187Z,81.71
2019-05-19T23:29:56.629Z,82.35
2019-05-19T23:32:24.049Z,82.56
2019-05-19T23:34:51.512Z,82.52
2019-05-19T23:37:18.961Z,83.40
2019-05-19T23:39:46.410Z,84.03
2019-05-19T23:42:13.843Z,83.79
2019-05-19T23:44:41.273Z,82.31
2019-05-19T23:47:08.739Z,80.91
2019-05-19T23:49:36.185Z,80.26
2019-05-19T23:52:03.971Z,80.12
2019-05-19T23:54:31.449Z,80.62
2019-05-19T23:56:58.859Z,80.71
2019-05-19T23:59:26.310Z,80.26
